Time,TemperatureF,DewpointF,PressureIn,WindDirection,WindDirectionDegrees,WindSpeedMPH,WindSpeedGustMPH,Humidity,HourlyPrecipIn,Conditions,Clouds,dailyrainin,SoftwareType,DateUTC
2013-04-12 00:07:00,45.9,44.0,29.98,ENE,65,19.0,24.0,94,0.00,,,0.00,weatherlink.com 1.10,2013-04-12 04:07:00,
2013-04-12 00:22:00,45.6,44.0,29.98,ENE,62,17.0,27.0,94,0.00,,,0.00,weatherlink.com 1.10,2013-04-12 04:22:00,
2013-04-12 00:37:00,45.5,44.0,29.98,ENE,78,12.0,27.0,94,0.00,,,0.00,weatherlink.com 1.10,2013-04-12 04:37:00,
2013-04-12 00:52:00,45.3,44.0,29.97,ENE,78,20.0,29.0,94,0.00,,,0.00,weatherlink.com 1.10,2013-04-12 04:52:00,
2013-04-12 01:07:00,45.2,44.0,29.97,East,84,18.0,30.0,95,0.00,,,0.00,weatherlink.com 1.10,2013-04-12 05:07:00,
2013-04-12 01:23:00,45.1,44.0,29.97,ENE,71,22.0,33.0,95,0.00,,,0.00,weatherlink.com 1.10,2013-04-12 05:23:00,
2013-04-12 01:38:00,45.1,44.0,29.97,ENE,75,26.0,30.0,95,0.01,,,0.01,weatherlink.com 1.10,2013-04-12 05:38:00,
2013-04-12 01:53:00,44.9,44.0,29.97,ENE,77,23.0,32.0,95,0.01,,,0.01,weatherlink.com 1.10,2013-04-12 05:53:00,
2013-04-12 02:08:00,44.8,44.0,29.96,ENE,68,29.0,36.0,96,0.02,,,0.02,weatherlink.com 1.10,2013-04-12 06:08:00,
2013-04-12 02:23:00,44.8,44.0,29.96,ENE,76,29.0,33.0,96,0.02,,,0.02,weatherlink.com 1.10,2013-04-12 06:23:00,
2013-04-12 02:38:00,44.7,44.0,29.95,ENE,77,22.0,34.0,96,0.02,,,0.03,weatherlink.com 1.10,2013-04-12 06:38:00,
2013-04-12 02:53:00,44.7,44.0,29.95,ENE,76,31.0,34.0,96,0.02,,,0.03,weatherlink.com 1.10,2013-04-12 06:53:00,
2013-04-12 03:08:00,44.7,44.0,29.95,ENE,66,23.0,32.0,96,0.01,,,0.03,weatherlink.com 1.10,2013-04-12 07:08:00,
2013-04-12 03:23:00,44.7,44.0,29.95,ENE,75,26.0,30.0,96,0.01,,,0.03,weatherlink.com 1.10,2013-04-12 07:23:00,
2013-04-12 03:38:00,44.9,44.0,29.94,ENE,64,24.0,29.0,96,0.01,,,0.04,weatherlink.com 1.10,2013-04-12 07:38:00,
2013-04-12 03:53:00,44.7,44.0,29.94,ENE,74,27.0,29.0,96,0.01,,,0.04,weatherlink.com 1.10,2013-04-12 07:53:00,
2013-04-12 04:08:00,44.9,44.0,29.94,ENE,71,16.0,27.0,96,0.01,,,0.04,weatherlink.com 1.10,2013-04-12 08:08:00,
2013-04-12 04:23:00,44.7,44.0,29.94,ENE,68,16.0,26.0,96,0.01,,,0.04,weatherlink.com 1.10,2013-04-12 08:23:00,
2013-04-12 04:38:00,44.6,44.0,29.93,NE,51,13.0,24.0,96,0.00,,,0.04,weatherlink.com 1.10,2013-04-12 08:38:00,
2013-04-12 04:54:00,44.6,44.0,29.93,ENE,60,18.0,26.0,96,0.00,,,0.04,weatherlink.com 1.10,2013-04-12 08:54:00,
2013-04-12 05:09:00,44.7,44.0,29.93,NE,48,14.0,30.0,96,0.00,,,0.00,weatherlink.com 1.10,2013-04-12 09:09:00,
2013-04-12 05:24:00,44.7,44.0,29.92,ENE,73,16.0,24.0,96,0.00,,,0.00,weatherlink.com 1.10,2013-04-12 09:24:00,
2013-04-12 05:39:00,44.7,44.0,29.92,ENE,77,15.0,27.0,96,0.00,,,0.00,weatherlink.com 1.10,2013-04-12 09:39:00,
2013-04-12 05:54:00,44.6,44.0,29.90,NE,51,14.0,30.0,96,0.01,,,0.01,weatherlink.com 1.10,2013-04-12 09:54:00,
2013-04-12 06:09:00,44.5,44.0,29.90,ENE,67,21.0,31.0,96,0.01,,,0.01,weatherlink.com 1.10,2013-04-12 10:09:00,
2013-04-12 06:24:00,44.4,43.0,29.90,ENE,76,23.0,29.0,96,0.01,,,0.01,weatherlink.com 1.10,2013-04-12 10:24:00,
2013-04-12 06:39:00,44.3,43.0,29.89,ENE,74,30.0,33.0,96,0.01,,,0.01,weatherlink.com 1.10,2013-04-12 10:39:00,
2013-04-12 06:54:00,44.4,43.0,29.88,ENE,66,22.0,34.0,96,0.01,,,0.02,weatherlink.com 1.10,2013-04-12 10:54:00,
2013-04-12 07:09:00,44.3,43.0,29.88,East,80,23.0,32.0,96,0.01,,,0.02,weatherlink.com 1.10,2013-04-12 11:09:00,
2013-04-12 07:24:00,44.2,43.0,29.88,ENE,77,25.0,34.0,96,0.02,,,0.03,weatherlink.com 1.10,2013-04-12 11:24:00,
2013-04-12 07:39:00,44.1,43.0,29.87,ENE,75,25.0,38.0,96,0.02,,,0.03,weatherlink.com 1.10,2013-04-12 11:39:00,
2013-04-12 07:54:00,44.2,43.0,29.87,ENE,66,25.0,36.0,96,0.01,,,0.03,weatherlink.com 1.10,2013-04-12 11:54:00,
2013-04-12 08:09:00,44.3,43.0,29.86,East,94,19.0,34.0,96,0.01,,,0.03,weatherlink.com 1.10,2013-04-12 12:09:00,
2013-04-12 08:24:00,44.2,43.0,29.86,ENE,74,29.0,33.0,96,0.00,,,0.03,weatherlink.com 1.10,2013-04-12 12:24:00,
2013-04-12 08:39:00,44.3,43.0,29.85,ENE,73,18.0,32.0,96,0.05,,,0.08,weatherlink.com 1.10,2013-04-12 12:39:00,
2013-04-12 08:54:00,44.3,43.0,29.85,ENE,59,20.0,32.0,96,0.09,,,0.12,weatherlink.com 1.10,2013-04-12 12:54:00,
2013-04-12 09:09:00,44.5,44.0,29.84,ENE,71,19.0,26.0,96,0.12,,,0.15,weatherlink.com 1.10,2013-04-12 13:09:00,
2013-04-12 09:24:00,44.7,44.0,29.83,ENE,62,15.0,31.0,97,0.14,,,0.17,weatherlink.com 1.10,2013-04-12 13:24:00,
2013-04-12 09:39:00,44.9,44.0,29.82,ENE,73,19.0,26.0,96,0.14,,,0.22,weatherlink.com 1.10,2013-04-12 13:39:00,
2013-04-12 09:54:00,45.1,44.0,29.83,East,87,14.0,23.0,96,0.15,,,0.27,weatherlink.com 1.10,2013-04-12 13:54:00,
2013-04-12 10:09:00,45.0,44.0,29.83,NE,56,8.0,18.0,96,0.14,,,0.29,weatherlink.com 1.10,2013-04-12 14:09:00,
2013-04-12 10:24:00,45.0,44.0,29.82,ENE,57,18.0,19.0,96,0.13,,,0.30,weatherlink.com 1.10,2013-04-12 14:24:00,
2013-04-12 10:39:00,45.4,45.0,29.82,NE,51,9.0,18.0,97,0.09,,,0.31,weatherlink.com 1.10,2013-04-12 14:39:00,
2013-04-12 10:54:00,45.1,44.0,29.81,NE,51,13.0,21.0,97,0.04,,,0.31,weatherlink.com 1.10,2013-04-12 14:54:00,
2013-04-12 11:09:00,45.3,45.0,29.82,NE,46,9.0,16.0,97,0.03,,,0.32,weatherlink.com 1.10,2013-04-12 15:09:00,
2013-04-12 11:24:00,45.1,44.0,29.81,NNE,29,13.0,20.0,96,0.03,,,0.33,weatherlink.com 1.10,2013-04-12 15:24:00,
2013-04-12 11:39:00,44.8,44.0,29.80,NNE,30,18.0,24.0,97,0.08,,,0.39,weatherlink.com 1.10,2013-04-12 15:39:00,
2013-04-12 11:55:00,44.9,44.0,29.79,NNE,27,16.0,23.0,97,0.10,,,0.41,weatherlink.com 1.10,2013-04-12 15:55:00,
2013-04-12 12:10:00,45.1,44.0,29.77,ENE,63,16.0,21.0,97,0.10,,,0.42,weatherlink.com 1.10,2013-04-12 16:10:00,
2013-04-12 12:25:00,45.5,45.0,29.76,NE,55,12.0,18.0,97,0.10,,,0.43,weatherlink.com 1.10,2013-04-12 16:25:00,
2013-04-12 12:40:00,45.3,45.0,29.76,ENE,61,13.0,20.0,97,0.05,,,0.44,weatherlink.com 1.10,2013-04-12 16:40:00,
2013-04-12 12:55:00,45.1,44.0,29.75,NE,46,16.0,21.0,97,0.05,,,0.46,weatherlink.com 1.10,2013-04-12 16:55:00,
2013-04-12 13:10:00,45.0,44.0,29.74,ENE,60,16.0,24.0,97,0.05,,,0.47,weatherlink.com 1.10,2013-04-12 17:10:00,
2013-04-12 13:25:00,45.1,44.0,29.73,NE,47,9.0,20.0,97,0.04,,,0.47,weatherlink.com 1.10,2013-04-12 17:25:00,
2013-04-12 13:40:00,45.2,44.0,29.73,NE,48,10.0,16.0,97,0.04,,,0.48,weatherlink.com 1.10,2013-04-12 17:40:00,
2013-04-12 13:55:00,45.4,45.0,29.72,NE,45,5.0,16.0,97,0.03,,,0.49,weatherlink.com 1.10,2013-04-12 17:55:00,
2013-04-12 14:10:00,45.4,45.0,29.72,NNE,20,15.0,15.0,97,0.03,,,0.50,weatherlink.com 1.10,2013-04-12 18:10:00,
2013-04-12 14:25:00,45.1,44.0,29.71,North,5,9.0,16.0,97,0.03,,,0.50,weatherlink.com 1.10,2013-04-12 18:25:00,
2013-04-12 15:40:00,44.9,44.0,29.68,NNE,20,16.0,18.0,97,0.11,,,0.61,weatherlink.com 1.10,2013-04-12 19:40:00,
2013-04-12 15:55:00,44.8,44.0,29.68,NNE,26,14.0,18.0,97,0.08,,,0.61,weatherlink.com 1.10,2013-04-12 19:55:00,
2013-04-12 16:10:00,44.7,44.0,29.68,NE,36,15.0,21.0,97,0.06,,,0.61,weatherlink.com 1.10,2013-04-12 20:10:00,
2013-04-12 16:25:00,44.6,44.0,29.68,North,10,8.0,20.0,97,0.04,,,0.61,weatherlink.com 1.10,2013-04-12 20:25:00,
2013-04-12 16:40:00,44.6,44.0,29.68,North,11,7.0,22.0,97,0.00,,,0.61,weatherlink.com 1.10,2013-04-12 20:40:00,
2013-04-12 16:55:00,44.6,44.0,29.68,NNE,20,11.0,22.0,97,0.00,,,0.61,weatherlink.com 1.10,2013-04-12 20:55:00,
2013-04-12 17:10:00,44.5,44.0,29.69,NNE,28,14.0,21.0,97,0.00,,,0.61,weatherlink.com 1.10,2013-04-12 21:10:00,
2013-04-12 17:25:00,44.4,44.0,29.69,NNE,13,16.0,19.0,97,0.00,,,0.61,weatherlink.com 1.10,2013-04-12 21:25:00,
2013-04-12 17:40:00,44.5,44.0,29.68,NNE,19,12.0,23.0,97,0.00,,,0.61,weatherlink.com 1.10,2013-04-12 21:40:00,
2013-04-12 17:55:00,44.4,44.0,29.69,NNE,33,18.0,23.0,97,0.01,,,0.62,weatherlink.com 1.10,2013-04-12 21:55:00,
2013-04-12 18:10:00,44.4,44.0,29.68,NE,42,12.0,25.0,97,0.01,,,0.62,weatherlink.com 1.10,2013-04-12 22:10:00,
2013-04-12 18:25:00,44.4,44.0,29.68,NNE,23,25.0,26.0,97,0.01,,,0.62,weatherlink.com 1.10,2013-04-12 22:25:00,
2013-04-12 18:40:00,44.7,44.0,29.67,NNE,32,9.0,26.0,97,0.01,,,0.62,weatherlink.com 1.10,2013-04-12 22:40:00,
2013-04-12 18:55:00,44.8,44.0,29.68,NE,36,15.0,22.0,97,0.01,,,0.63,weatherlink.com 1.10,2013-04-12 22:55:00,
2013-04-12 19:10:00,44.8,44.0,29.68,North,9,15.0,21.0,97,0.01,,,0.63,weatherlink.com 1.10,2013-04-12 23:10:00,
2013-04-12 19:25:00,44.8,44.0,29.67,NNE,31,9.0,23.0,97,0.01,,,0.63,weatherlink.com 1.10,2013-04-12 23:25:00,
2013-04-12 19:40:00,44.8,44.0,29.67,NNE,19,16.0,18.0,97,0.01,,,0.63,weatherlink.com 1.10,2013-04-12 23:40:00,
2013-04-12 19:55:00,44.5,44.0,29.68,NNE,26,4.0,18.0,97,0.00,,,0.63,weatherlink.com 1.10,2013-04-12 23:55:00,
2013-04-12 20:10:00,44.3,44.0,29.68,NNE,24,13.0,20.0,97,0.00,,,0.63,weatherlink.com 1.10,2013-04-13 00:10:00,
2013-04-12 20:25:00,44.3,44.0,29.68,NE,38,8.0,19.0,97,0.00,,,0.63,weatherlink.com 1.10,2013-04-13 00:25:00,
2013-04-12 20:40:00,44.0,43.0,29.68,NNE,12,14.0,20.0,97,0.00,,,0.63,weatherlink.com 1.10,2013-04-13 00:40:00,
2013-04-12 20:55:00,43.9,43.0,29.69,North,5,10.0,22.0,97,0.00,,,0.63,weatherlink.com 1.10,2013-04-13 00:55:00,
2013-04-12 21:10:00,43.9,43.0,29.69,NNE,15,16.0,20.0,97,0.00,,,0.63,weatherlink.com 1.10,2013-04-13 01:10:00,
2013-04-12 21:25:00,43.8,43.0,29.70,North,5,14.0,21.0,97,0.00,,,0.63,weatherlink.com 1.10,2013-04-13 01:25:00,
2013-04-12 21:40:00,43.6,43.0,29.71,NE,55,10.0,21.0,97,0.00,,,0.63,weatherlink.com 1.10,2013-04-13 01:40:00,
2013-04-12 21:55:00,43.8,43.0,29.71,NNE,30,12.0,18.0,97,0.00,,,0.63,weatherlink.com 1.10,2013-04-13 01:55:00,
2013-04-12 22:11:00,43.6,43.0,29.71,NNE,24,12.0,20.0,97,0.00,,,0.63,weatherlink.com 1.10,2013-04-13 02:11:00,
2013-04-12 22:26:00,43.5,43.0,29.71,NE,46,12.0,18.0,97,0.00,,,0.63,weatherlink.com 1.10,2013-04-13 02:26:00,
2013-04-12 22:41:00,43.4,43.0,29.70,NE,37,12.0,24.0,97,0.00,,,0.63,weatherlink.com 1.10,2013-04-13 02:41:00,
2013-04-12 22:55:00,43.4,43.0,29.70,NE,43,20.0,23.0,97,0.00,,,0.63,weatherlink.com 1.10,2013-04-13 02:55:00,
2013-04-12 23:11:00,43.4,43.0,29.71,NE,36,10.0,20.0,97,0.00,,,0.63,weatherlink.com 1.10,2013-04-13 03:11:00,
2013-04-12 23:26:00,43.3,43.0,29.70,North,11,12.0,21.0,97,0.00,,,0.63,weatherlink.com 1.10,2013-04-13 03:26:00,
2013-04-12 23:41:00,43.4,43.0,29.71,NNE,25,11.0,20.0,97,0.00,,,0.63,weatherlink.com 1.10,2013-04-13 03:41:00,
2013-04-12 23:56:00,43.7,43.0,29.78,NW,319,10.0,24.0,97,0.01,,,0.64,weatherlink.com 1.10,2013-04-13 03:56:00,